Time;durP1;ratioP1;P1;durP2;ratioP2;P2;SDS_P1;SDS_P2;PMS_P1;PMS_P2;Temp;Humidity;BMP_temperature;BMP_pressure;BME280_temperature;BME280_humidity;BME280_pressure;Samples;Min_cycle;Max_cycle;Signal;HPM_P1;HPM_P2
2023/03/18 00:00:31;;;;;;;9.27;5.45;;;;;;;9.42;31.38;100003.31;4415170;32;32588;-61
2023/03/18 00:02:59;;;;;;;7.53;4.85;;;;;;;9.91;30.67;100009.87;4422664;32;33627;-63
2023/03/18 00:05:27;;;;;;;8.18;5.15;;;;;;;10.00;30.50;99996.72;4422075;32;35059;-64
2023/03/18 00:07:55;;;;;;;7.25;3.95;;;;;;;10.09;30.39;100002.41;4422127;32;35053;-63
2023/03/18 00:10:23;;;;;;;11.70;3.97;;;;;;;9.98;30.49;100001.34;4420602;32;34566;-65
2023/03/18 00:12:52;;;;;;;10.82;5.60;;;;;;;9.99;30.54;99992.34;4420677;32;34577;-63
2023/03/18 00:15:19;;;;;;;6.87;4.62;;;;;;;9.86;30.63;99990.62;4415705;32;35034;-65
2023/03/18 00:17:48;;;;;;;7.18;3.42;;;;;;;10.08;30.33;99982.84;4421292;32;33772;-65
2023/03/18 00:20:17;;;;;;;3.60;2.97;;;;;;;10.20;30.12;99981.97;4418366;32;33879;-65
2023/03/18 00:22:45;;;;;;;7.10;4.45;;;;;;;10.20;30.23;99981.13;4421519;32;33286;-64
2023/03/18 00:25:14;;;;;;;7.87;4.70;;;;;;;10.18;30.17;99977.72;4420906;32;34112;-66
2023/03/18 00:27:41;;;;;;;13.20;5.10;;;;;;;9.61;30.81;99978.06;4421351;32;35016;-64
2023/03/18 00:30:11;;;;;;;6.90;4.87;;;;;;;9.89;30.50;99983.25;4419751;32;32508;-63
2023/03/18 00:32:40;;;;;;;5.12;3.97;;;;;;;9.80;30.52;99975.84;4421165;32;32049;-62
2023/03/18 00:35:08;;;;;;;14.23;5.45;;;;;;;10.20;30.16;99989.16;4419967;32;33693;-62
2023/03/18 00:37:35;;;;;;;8.57;4.82;;;;;;;10.37;30.08;99977.28;4419628;32;35067;-63
2023/03/18 00:40:06;;;;;;;5.05;3.50;;;;;;;10.05;30.39;99977.72;4416749;32;35255;-66
2023/03/18 00:42:38;;;;;;;7.87;3.65;;;;;;;10.26;30.09;99984.25;4416102;32;33625;-64
2023/03/18 00:45:07;;;;;;;7.43;5.07;;;;;;;10.31;29.85;99975.94;4416356;32;34759;-65
2023/03/18 00:47:37;;;;;;;6.30;4.10;;;;;;;10.38;29.77;99974.53;4419630;32;33028;-63
2023/03/18 00:50:07;;;;;;;10.98;3.92;;;;;;;10.57;30.05;99973.22;4418305;32;33849;-65
2023/03/18 00:52:36;;;;;;;7.50;3.85;;;;;;;10.54;30.09;99970.78;4421430;32;33575;-64
2023/03/18 00:55:04;;;;;;;10.52;4.65;;;;;;;10.52;30.37;99973.53;4418740;32;34464;-65
2023/03/18 00:57:32;;;;;;;5.35;3.95;;;;;;;10.51;30.25;99965.63;4421843;32;35170;-65
2023/03/18 01:00:00;;;;;;;5.20;2.92;;;;;;;10.43;30.54;99967.03;4420821;32;32475;-65
2023/03/18 01:02:28;;;;;;;8.30;3.35;;;;;;;10.29;30.70;99967.12;4419512;32;33423;-63
2023/03/18 01:04:56;;;;;;;5.20;3.22;;;;;;;10.22;30.90;99965.84;4420462;32;32897;-63
2023/03/18 01:07:24;;;;;;;3.62;2.28;;;;;;;10.12;31.08;99970.13;4419898;32;34236;-66
2023/03/18 01:09:51;;;;;;;9.35;3.72;;;;;;;10.16;30.82;99961.75;4421131;32;34083;-66
2023/03/18 01:12:19;;;;;;;5.90;3.08;;;;;;;10.11;30.69;99952.34;4421535;32;32962;-63
2023/03/18 01:14:48;;;;;;;3.58;2.28;;;;;;;9.95;30.84;99956.09;4417304;32;33808;-63
2023/03/18 01:17:15;;;;;;;4.78;2.97;;;;;;;9.98;31.00;99953.22;4419907;32;34911;-64
2023/03/18 01:19:43;;;;;;;13.50;3.25;;;;;;;10.03;30.70;99955.56;4420624;32;34234;-64
2023/03/18 01:22:11;;;;;;;4.20;3.25;;;;;;;9.76;31.21;99950.28;4420334;32;32493;-65
2023/03/18 01:24:39;;;;;;;5.50;3.92;;;;;;;9.64;31.45;99949.28;4420176;32;33643;-64
2023/03/18 01:27:06;;;;;;;6.22;4.20;;;;;;;9.72;31.01;99941.59;4418509;32;35094;-65
2023/03/18 01:29:35;;;;;;;6.15;3.58;;;;;;;9.62;31.03;99939.66;4420579;32;33586;-63
2023/03/18 01:32:03;;;;;;;6.93;4.15;;;;;;;9.71;30.64;99939.03;4419826;32;33548;-62
2023/03/18 01:34:30;;;;;;;3.87;2.55;;;;;;;9.76;30.58;99927.09;4417575;32;33733;-63
2023/03/18 01:36:58;;;;;;;6.35;2.72;;;;;;;9.72;30.26;99924.72;4420155;32;34439;-62
2023/03/18 01:39:26;;;;;;;5.53;3.67;;;;;;;9.17;30.88;99917.75;4405246;32;34883;-63
2023/03/18 01:41:54;;;;;;;5.40;2.83;;;;;;;9.24;30.81;99919.03;4419721;32;33863;-63
2023/03/18 01:44:24;;;;;;;6.50;3.45;;;;;;;9.53;30.26;99925.09;4420550;32;33687;-63
2023/03/18 01:46:52;;;;;;;3.62;2.10;;;;;;;9.53;30.09;99925.97;4420999;32;34972;-62
2023/03/18 01:49:27;;;;;;;4.93;3.42;;;;;;;9.21;30.69;99908.56;4406779;32;33964;-63
2023/03/18 01:52:11;;;;;;;8.52;3.60;;;;;;;8.90;31.09;99910.59;4405712;32;33444;-62
2023/03/18 01:54:42;;;;;;;3.17;2.28;;;;;;;7.09;33.67;99918.97;4422006;32;34653;-65
2023/03/18 01:57:11;;;;;;;3.15;2.62;;;;;;;7.87;32.65;99911.72;4407078;32;35011;-66
2023/03/18 01:59:40;;;;;;;5.80;2.67;;;;;;;8.33;32.01;99921.34;4420037;32;33804;-63
2023/03/18 02:02:10;;;;;;;3.83;2.30;;;;;;;8.70;31.39;99911.91;4403694;32;33416;-65
2023/03/18 02:04:41;;;;;;;3.40;2.78;;;;;;;8.98;30.60;99912.75;4421623;32;33655;-65
2023/03/18 02:07:22;;;;;;;5.35;3.12;;;;;;;9.65;29.86;99923.44;4419951;32;33825;-62
2023/03/18 02:09:51;;;;;;;5.57;2.45;;;;;;;9.08;30.57;99921.88;4422118;32;32823;-62
2023/03/18 02:12:28;;;;;;;2.80;2.22;;;;;;;9.46;30.10;99913.12;4420627;32;32081;-63
2023/03/18 02:14:57;;;;;;;3.58;2.47;;;;;;;9.78;29.71;99922.47;4409727;32;35630;-65
2023/03/18 02:17:28;;;;;;;6.82;4.18;;;;;;;9.92;29.38;99917.97;4422353;32;33496;-63
2023/03/18 02:20:11;;;;;;;6.35;3.03;;;;;;;9.90;29.32;99910.09;4409808;32;33982;-63
2023/03/18 02:22:49;;;;;;;4.62;2.00;;;;;;;9.56;29.86;99915.06;4421544;32;34458;-64
2023/03/18 02:25:26;;;;;;;2.97;2.10;;;;;;;9.62;29.89;99910.28;4421592;32;33833;-62
2023/03/18 02:28:03;;;;;;;5.00;3.17;;;;;;;9.27;30.29;99909.00;4422458;32;35007;-65
2023/03/18 02:30:42;;;;;;;3.00;2.08;;;;;;;9.84;29.52;99913.19;4400849;32;32561;-63
2023/03/18 02:33:10;;;;;;;4.07;1.80;;;;;;;10.05;29.20;99908.19;4402783;32;31908;-63
2023/03/18 02:35:39;;;;;;;9.88;3.00;;;;;;;10.10;28.98;99905.16;4395098;32;33870;-63
2023/03/18 02:38:06;;;;;;;4.70;2.67;;;;;;;10.20;28.82;99907.06;4407853;32;33916;-62
2023/03/18 02:40:36;;;;;;;3.78;1.58;;;;;;;10.25;28.83;99914.78;4421035;32;35192;-64
2023/03/18 02:43:27;;;;;;;3.45;2.28;;;;;;;10.12;28.72;99909.44;4422190;32;32315;-62
2023/03/18 02:46:11;;;;;;;1.85;1.73;;;;;;;10.21;28.55;99915.97;4417296;32;32849;-62
2023/03/18 02:48:42;;;;;;;4.10;2.17;;;;;;;10.36;28.41;99917.56;4407813;32;32324;-63
2023/03/18 02:51:11;;;;;;;1.48;1.00;;;;;;;10.26;28.32;99911.19;4419786;32;33106;-64
2023/03/18 02:53:40;;;;;;;1.92;1.50;;;;;;;10.34;28.31;99910.66;4422214;32;31949;-65
2023/03/18 02:56:09;;;;;;;2.78;2.03;;;;;;;10.04;28.49;99911.78;4420685;32;33850;-65
2023/03/18 02:58:39;;;;;;;9.68;3.60;;;;;;;10.43;28.27;99913.53;4422554;32;33985;-65
2023/03/18 03:01:07;;;;;;;2.03;1.67;;;;;;;10.32;28.20;99905.38;4420440;32;34250;-64
2023/03/18 03:03:36;;;;;;;6.45;2.75;;;;;;;10.28;28.32;99909.25;4422399;32;34246;-62
2023/03/18 03:06:03;;;;;;;6.65;2.10;;;;;;;10.40;28.25;99908.38;4421669;32;33833;-64
2023/03/18 03:08:32;;;;;;;3.65;2.80;;;;;;;10.45;28.16;99913.41;4420607;32;34242;-64
2023/03/18 03:10:59;;;;;;;16.77;2.65;;;;;;;10.25;28.39;99904.09;4420536;32;33611;-62
2023/03/18 03:13:28;;;;;;;4.80;2.28;;;;;;;10.11;28.68;99906.88;4422182;32;33456;-64
2023/03/18 03:15:56;;;;;;;4.75;2.17;;;;;;;10.29;28.58;99902.94;4421388;32;34015;-62
2023/03/18 03:18:25;;;;;;;2.47;1.92;;;;;;;10.34;28.70;99907.97;4420770;32;34988;-64
2023/03/18 03:20:52;;;;;;;4.30;2.53;;;;;;;10.35;28.56;99902.50;4422842;32;33629;-63
2023/03/18 03:23:20;;;;;;;4.35;2.40;;;;;;;9.30;30.18;99906.12;4418499;32;33364;-64
2023/03/18 03:25:48;;;;;;;5.30;2.60;;;;;;;9.60;29.88;99921.09;4422646;32;35039;-63
2023/03/18 03:28:15;;;;;;;3.37;2.47;;;;;;;9.86;29.35;99921.12;4417206;32;33705;-62
2023/03/18 03:30:44;;;;;;;4.78;2.62;;;;;;;9.86;29.53;99923.78;4420707;32;33157;-63
2023/03/18 03:33:12;;;;;;;3.70;2.87;;;;;;;10.00;29.34;99915.66;4420177;32;33231;-65
2023/03/18 03:35:40;;;;;;;6.90;3.72;;;;;;;9.22;30.48;99918.31;4414533;32;34111;-65
2023/03/18 03:38:08;;;;;;;7.78;2.25;;;;;;;8.99;30.85;99920.69;4420491;32;34045;-62
2023/03/18 03:40:36;;;;;;;3.67;2.40;;;;;;;9.54;29.99;99921.50;4419827;32;33625;-63
2023/03/18 03:43:04;;;;;;;3.25;2.05;;;;;;;9.68;29.68;99932.09;4419011;32;31822;-63
2023/03/18 03:45:33;;;;;;;4.68;2.87;;;;;;;9.97;29.39;99929.22;4421791;32;33711;-64
2023/03/18 03:48:01;;;;;;;4.72;3.00;;;;;;;9.88;29.45;99930.72;4420143;32;33841;-66
2023/03/18 03:50:28;;;;;;;2.12;1.70;;;;;;;9.47;30.07;99933.53;4422192;32;34254;-64
2023/03/18 03:52:57;;;;;;;3.45;2.20;;;;;;;9.75;29.76;99930.69;4421430;32;33471;-64
2023/03/18 03:55:26;;;;;;;5.78;3.42;;;;;;;9.88;29.61;99929.88;4419965;32;34864;-64
2023/03/18 03:57:54;;;;;;;6.75;4.05;;;;;;;9.86;29.46;99929.12;4420935;32;35051;-63
2023/03/18 04:00:23;;;;;;;7.90;4.18;;;;;;;9.35;29.93;99921.88;4421580;32;33731;-64
2023/03/18 04:02:51;;;;;;;11.85;3.70;;;;;;;9.48;29.88;99921.91;4416983;32;34338;-64
2023/03/18 04:05:21;;;;;;;5.93;2.83;;;;;;;9.00;30.79;99921.53;4418954;32;34475;-64
2023/03/18 04:07:50;;;;;;;4.22;2.33;;;;;;;9.11;30.47;99935.03;4417532;32;33169;-64
2023/03/18 04:10:19;;;;;;;2.62;1.70;;;;;;;9.21;30.38;99932.59;4420413;32;33853;-63
2023/03/18 04:12:48;;;;;;;4.62;3.50;;;;;;;8.92;30.84;99932.69;4420101;32;33453;-65
2023/03/18 04:15:18;;;;;;;15.50;4.22;;;;;;;9.56;29.82;99928.41;4409929;32;33602;-63
2023/03/18 04:17:48;;;;;;;7.03;3.67;;;;;;;9.49;29.95;99928.94;4414830;32;32901;-66
2023/03/18 04:20:16;;;;;;;5.80;3.10;;;;;;;9.50;29.93;99934.22;4417529;32;32496;-63
2023/03/18 04:22:44;;;;;;;4.97;2.30;;;;;;;9.39;30.22;99925.19;4413314;32;33235;-63
2023/03/18 04:25:13;;;;;;;12.48;3.35;;;;;;;9.28;30.45;99931.25;4417513;32;32688;-63
2023/03/18 04:27:41;;;;;;;3.85;2.62;;;;;;;9.12;30.67;99933.19;4415229;32;34069;-63
2023/03/18 04:30:10;;;;;;;5.80;3.33;;;;;;;8.78;31.28;99930.06;4419801;32;33687;-62
2023/03/18 04:32:39;;;;;;;15.05;3.53;;;;;;;8.58;31.55;99934.03;4417988;32;33514;-64
2023/03/18 04:35:07;;;;;;;6.97;3.55;;;;;;;8.44;31.79;99934.03;4419984;32;33546;-65
2023/03/18 04:37:35;;;;;;;4.53;2.47;;;;;;;9.09;30.90;99931.63;4413034;32;34695;-64
2023/03/18 04:40:05;;;;;;;4.37;2.37;;;;;;;9.17;30.81;99939.97;4398436;32;34863;-63
2023/03/18 04:42:33;;;;;;;7.57;4.22;;;;;;;9.26;30.76;99943.84;4412106;32;33589;-62
2023/03/18 04:45:00;;;;;;;7.30;3.65;;;;;;;9.23;30.64;99941.38;4415858;32;33389;-65
2023/03/18 04:47:28;;;;;;;7.22;3.28;;;;;;;9.08;31.10;99944.12;4413382;32;33954;-62
2023/03/18 04:49:56;;;;;;;2.42;2.08;;;;;;;9.38;30.70;99943.03;4417569;32;33747;-63
2023/03/18 04:52:23;;;;;;;7.50;3.67;;;;;;;9.54;30.51;99950.88;4410517;32;32641;-64
2023/03/18 04:54:52;;;;;;;5.05;3.35;;;;;;;9.48;30.62;99948.63;4413459;32;31311;-63
2023/03/18 04:57:20;;;;;;;4.60;3.42;;;;;;;8.91;31.58;99952.34;4417514;32;33803;-63
2023/03/18 04:59:47;;;;;;;10.55;4.95;;;;;;;9.41;31.04;99945.50;4412663;32;32808;-66
2023/03/18 05:02:15;;;;;;;5.37;3.08;;;;;;;9.35;31.16;99955.75;4411691;32;32911;-64
2023/03/18 05:04:43;;;;;;;3.55;2.85;;;;;;;9.08;31.42;99951.25;4414596;32;32453;-65
2023/03/18 05:07:14;;;;;;;4.20;3.33;;;;;;;8.23;32.64;99954.87;4414793;32;32782;-63
2023/03/18 05:09:43;;;;;;;6.30;4.22;;;;;;;9.36;31.28;99955.63;4419404;32;33615;-64
2023/03/18 05:12:13;;;;;;;9.30;3.10;;;;;;;8.43;32.99;99962.50;4420607;32;31736;-74
2023/03/18 05:14:42;;;;;;;8.20;3.67;;;;;;;8.72;32.49;99958.00;4416051;32;35200;-67
2023/03/18 05:17:14;;;;;;;11.93;4.78;;;;;;;8.16;33.69;99954.38;4418106;32;33865;-66
2023/03/18 05:19:47;;;;;;;7.12;4.30;;;;;;;7.61;34.71;99973.72;4411636;32;33597;-64
2023/03/18 05:22:16;;;;;;;5.53;4.40;;;;;;;8.24;33.83;99969.91;4413786;32;33113;-65
2023/03/18 05:24:45;;;;;;;10.27;4.20;;;;;;;7.80;34.72;99970.78;4415497;32;33738;-65
2023/03/18 05:27:15;;;;;;;6.47;3.90;;;;;;;6.43;37.21;99973.22;4420849;32;34216;-66
2023/03/18 05:29:43;;;;;;;4.72;3.53;;;;;;;7.02;36.92;99968.19;4419066;32;33363;-63
2023/03/18 05:32:13;;;;;;;3.72;3.12;;;;;;;7.33;36.20;99964.66;4403145;32;34300;-62
2023/03/18 05:34:41;;;;;;;3.17;2.65;;;;;;;8.32;34.80;99964.97;4420413;32;33728;-63
2023/03/18 05:37:11;;;;;;;5.65;4.28;;;;;;;8.21;34.71;99972.75;4421995;32;35032;-64
2023/03/18 05:39:39;;;;;;;6.65;2.87;;;;;;;7.77;35.45;99976.28;4420000;32;32365;-60
2023/03/18 05:42:11;;;;;;;4.07;2.85;;;;;;;7.68;35.46;99983.03;4419734;32;34572;-62
2023/03/18 05:44:39;;;;;;;7.32;4.05;;;;;;;8.43;35.19;99983.00;4422131;32;34649;-61
2023/03/18 05:47:08;;;;;;;8.93;2.85;;;;;;;8.42;34.34;99984.81;4420402;32;33924;-62
2023/03/18 05:49:37;;;;;;;6.35;3.53;;;;;;;8.65;34.47;99982.50;4417999;32;35665;-61
2023/03/18 05:52:09;;;;;;;13.57;5.10;;;;;;;8.29;34.62;99986.50;4420180;32;32771;-63
2023/03/18 05:54:36;;;;;;;2.60;2.17;;;;;;;8.33;34.16;99988.84;4422409;32;33949;-64
2023/03/18 05:57:04;;;;;;;7.25;4.15;;;;;;;7.87;34.86;99986.31;4422011;32;32551;-63
2023/03/18 05:59:32;;;;;;;4.90;3.50;;;;;;;8.37;34.73;99992.19;4422305;32;33707;-62
2023/03/18 06:02:00;;;;;;;5.90;3.10;;;;;;;7.39;35.80;100001.56;4418940;32;33342;-60
2023/03/18 06:04:28;;;;;;;7.82;3.47;;;;;;;7.81;35.37;99991.16;4417781;32;35096;-61
2023/03/18 06:06:57;;;;;;;5.93;4.55;;;;;;;8.54;34.56;99993.84;4419770;32;33741;-63
2023/03/18 06:09:24;;;;;;;8.07;3.53;;;;;;;7.93;35.34;99993.97;4418450;32;33680;-61
2023/03/18 06:11:53;;;;;;;3.53;2.35;;;;;;;8.31;35.21;100001.41;4417412;32;32271;-61
2023/03/18 06:14:20;;;;;;;4.87;2.80;;;;;;;8.98;33.86;99999.03;4417442;32;33839;-61
2023/03/18 06:16:49;;;;;;;3.67;2.28;;;;;;;8.37;35.14;100011.72;4420239;32;34825;-61
2023/03/18 06:19:19;;;;;;;5.25;3.90;;;;;;;8.55;34.98;100007.09;4420297;32;33922;-62
2023/03/18 06:21:47;;;;;;;11.40;3.50;;;;;;;8.84;34.64;99999.06;4420537;32;32190;-64
2023/03/18 06:24:14;;;;;;;4.35;3.42;;;;;;;6.94;37.88;100013.03;4419688;32;35587;-64
2023/03/18 06:26:42;;;;;;;5.72;3.75;;;;;;;7.60;36.39;100010.13;4421766;32;32377;-64
2023/03/18 06:29:10;;;;;;;6.78;3.95;;;;;;;8.78;34.83;100002.97;4423281;32;35053;-63
2023/03/18 06:31:38;;;;;;;5.47;3.50;;;;;;;8.80;34.43;100001.09;4420729;32;33481;-70
2023/03/18 06:34:06;;;;;;;10.18;4.25;;;;;;;8.57;34.86;100007.88;4421635;32;33700;-62
2023/03/18 06:36:33;;;;;;;13.02;7.28;;;;;;;8.84;34.96;100015.94;4419178;32;33861;-64
2023/03/18 06:39:01;;;;;;;13.00;7.90;;;;;;;8.46;35.36;100025.50;4419409;32;33204;-63
2023/03/18 06:41:29;;;;;;;46.50;20.42;;;;;;;8.90;34.90;100024.53;4421624;32;33306;-63
2023/03/18 06:43:58;;;;;;;30.42;15.45;;;;;;;9.12;34.53;100018.66;4420165;32;34838;-64
2023/03/18 06:46:28;;;;;;;23.70;12.68;;;;;;;9.28;34.51;100027.41;4418184;32;34614;-64
2023/03/18 06:48:56;;;;;;;19.42;10.73;;;;;;;9.35;33.61;100025.19;4422516;32;34829;-63
2023/03/18 06:51:24;;;;;;;14.38;8.05;;;;;;;8.98;34.95;100033.75;4421475;32;33419;-63
2023/03/18 06:53:53;;;;;;;19.48;8.70;;;;;;;9.59;33.42;100030.72;4420185;32;33433;-63
2023/03/18 06:56:22;;;;;;;9.88;5.87;;;;;;;9.86;33.65;100028.91;4421160;32;34101;-63
2023/03/18 06:58:51;;;;;;;11.27;5.75;;;;;;;9.73;33.13;100028.88;4418933;32;34891;-66
2023/03/18 07:01:19;;;;;;;11.12;5.95;;;;;;;9.51;33.95;100029.44;4417849;32;33110;-64
2023/03/18 07:03:48;;;;;;;9.10;6.37;;;;;;;9.41;33.75;100033.66;4420338;32;33960;-63
2023/03/18 07:06:17;;;;;;;13.95;4.22;;;;;;;9.04;34.65;100033.34;4420330;32;35232;-63
2023/03/18 07:08:46;;;;;;;3.70;2.80;;;;;;;9.74;33.28;100035.06;4417284;32;34406;-63
2023/03/18 07:11:13;;;;;;;6.03;4.80;;;;;;;9.20;34.46;100033.22;4419385;32;33153;-65
2023/03/18 07:13:41;;;;;;;8.05;4.43;;;;;;;9.46;34.49;100028.88;4417197;32;34933;-63
2023/03/18 07:16:12;;;;;;;6.25;3.85;;;;;;;9.72;33.41;100032.47;4413110;32;34202;-63
2023/03/18 07:18:41;;;;;;;7.43;4.50;;;;;;;9.72;34.26;100034.31;4412929;32;34996;-64
2023/03/18 07:21:12;;;;;;;6.45;3.50;;;;;;;9.86;33.66;100038.75;4417041;32;33948;-64
2023/03/18 07:23:40;;;;;;;1.92;1.55;;;;;;;10.02;32.96;100031.41;4416714;32;34812;-63
2023/03/18 07:26:08;;;;;;;3.33;2.28;;;;;;;9.72;33.45;100036.97;4419397;32;35151;-64
2023/03/18 07:28:36;;;;;;;5.15;3.42;;;;;;;10.22;32.83;100032.72;4418912;32;33869;-63
2023/03/18 07:31:03;;;;;;;3.50;2.72;;;;;;;10.32;33.10;100035.62;4413859;32;33324;-69
2023/03/18 07:33:32;;;;;;;7.93;2.97;;;;;;;9.94;33.39;100031.03;4415820;32;33777;-63
2023/03/18 07:35:59;;;;;;;5.72;3.70;;;;;;;10.15;32.69;100042.97;4421205;32;34081;-64
2023/03/18 07:38:27;;;;;;;3.37;2.33;;;;;;;9.44;34.19;100041.47;4418856;32;32646;-63
2023/03/18 07:40:55;;;;;;;5.85;3.30;;;;;;;10.31;32.55;100044.63;4421795;32;33479;-64
2023/03/18 07:43:23;;;;;;;5.12;3.10;;;;;;;10.52;32.65;100047.63;4419856;32;33950;-63
2023/03/18 07:45:50;;;;;;;5.12;3.65;;;;;;;10.30;33.27;100049.09;4420759;32;33962;-63
2023/03/18 07:48:18;;;;;;;9.95;3.53;;;;;;;10.59;32.70;100055.09;4411008;32;34975;-63
2023/03/18 07:50:46;;;;;;;4.57;3.10;;;;;;;10.56;32.66;100049.12;4416190;32;32997;-62
2023/03/18 07:53:14;;;;;;;10.32;3.08;;;;;;;11.39;31.24;100052.94;4416105;32;33593;-62
2023/03/18 07:55:43;;;;;;;6.45;3.33;;;;;;;11.77;30.60;100054.59;4419260;32;33828;-63
2023/03/18 07:58:11;;;;;;;23.48;3.58;;;;;;;13.64;28.30;100039.94;4418659;32;34813;-62
2023/03/18 08:00:38;;;;;;;4.28;2.90;;;;;;;15.36;25.67;100047.53;4419013;32;33446;-66
2023/03/18 08:03:06;;;;;;;6.07;3.78;;;;;;;17.71;23.05;100036.09;4416187;32;33952;-63
2023/03/18 08:05:33;;;;;;;5.12;3.28;;;;;;;16.80;23.33;100044.13;4418744;32;32812;-63
2023/03/18 08:08:01;;;;;;;5.87;3.75;;;;;;;17.90;22.30;100041.41;4417886;32;33935;-63
2023/03/18 08:10:29;;;;;;;9.23;4.68;;;;;;;17.09;23.03;100044.00;4418275;32;33316;-64
2023/03/18 08:12:56;;;;;;;10.93;6.20;;;;;;;17.53;22.62;100027.97;4415351;32;33790;-64
2023/03/18 08:15:24;;;;;;;11.73;5.80;;;;;;;17.46;22.46;100033.16;4419698;32;35326;-63
2023/03/18 08:17:52;;;;;;;8.00;4.47;;;;;;;17.82;22.45;100040.50;4421074;32;33752;-63
2023/03/18 08:20:20;;;;;;;11.90;7.68;;;;;;;18.00;21.87;100037.75;4418425;32;33488;-65
2023/03/18 08:22:48;;;;;;;8.50;5.40;;;;;;;17.27;22.90;100043.22;4418317;32;33596;-67
2023/03/18 08:25:16;;;;;;;9.18;6.15;;;;;;;16.36;23.92;100041.06;4419830;32;35794;-64
2023/03/18 08:27:44;;;;;;;8.20;5.07;;;;;;;16.70;23.51;100043.28;4411406;32;33999;-64
2023/03/18 08:30:12;;;;;;;10.38;4.93;;;;;;;15.54;25.11;100045.03;4411425;32;34540;-64
2023/03/18 08:32:40;;;;;;;4.18;3.00;;;;;;;14.08;26.68;100039.88;4416250;32;33608;-63
2023/03/18 08:35:10;;;;;;;7.43;4.15;;;;;;;14.12;26.78;100038.62;4418025;32;33731;-65
2023/03/18 08:37:37;;;;;;;7.15;4.22;;;;;;;13.18;28.49;100042.81;4420166;32;32224;-63
2023/03/18 08:40:05;;;;;;;6.28;3.67;;;;;;;13.16;28.94;100039.38;4419752;32;34522;-64
2023/03/18 08:42:33;;;;;;;7.10;3.35;;;;;;;12.55;29.58;100043.31;4421566;32;33731;-64
2023/03/18 08:45:00;;;;;;;6.75;3.67;;;;;;;12.72;29.40;100030.37;4419570;32;33744;-65
2023/03/18 08:47:28;;;;;;;3.65;2.90;;;;;;;12.11;29.53;100027.97;4419360;32;33970;-63
2023/03/18 08:49:56;;;;;;;7.10;4.28;;;;;;;12.62;29.90;100042.84;4418747;32;33532;-66
2023/03/18 08:52:24;;;;;;;6.12;3.67;;;;;;;11.80;30.85;100042.81;4418843;32;35770;-63
2023/03/18 08:54:52;;;;;;;6.03;3.75;;;;;;;12.16;30.59;100038.34;4419257;32;35247;-65
2023/03/18 08:57:19;;;;;;;5.75;3.62;;;;;;;12.09;30.34;100038.78;4419362;32;35120;-64
2023/03/18 08:59:47;;;;;;;4.12;2.72;;;;;;;12.07;30.66;100037.19;4416179;32;33455;-64
2023/03/18 09:02:17;;;;;;;5.55;2.55;;;;;;;13.03;28.98;100036.84;4418824;32;32105;-67
2023/03/18 09:04:47;;;;;;;6.12;3.58;;;;;;;13.12;29.21;100035.25;4412327;32;34087;-64
2023/03/18 09:07:15;;;;;;;4.70;2.80;;;;;;;13.36;28.32;100037.81;4419770;32;33809;-65
2023/03/18 09:09:45;;;;;;;5.45;2.75;;;;;;;12.80;29.53;100050.28;4415808;32;34261;-68
2023/03/18 09:12:13;;;;;;;6.40;3.35;;;;;;;13.36;28.72;100046.75;4414781;32;33896;-64
2023/03/18 09:14:42;;;;;;;10.23;4.00;;;;;;;13.86;27.61;100040.84;4412325;32;34729;-66
2023/03/18 09:17:10;;;;;;;5.45;3.28;;;;;;;12.45;28.99;100054.88;4414890;32;34978;-65
2023/03/18 09:19:37;;;;;;;5.95;3.25;;;;;;;13.38;28.79;100030.47;4416571;32;33206;-68
2023/03/18 09:22:05;;;;;;;6.47;4.20;;;;;;;13.16;28.25;100039.38;4420793;32;32759;-64
2023/03/18 09:24:33;;;;;;;5.87;3.37;;;;;;;13.02;28.92;100035.12;4421023;32;34090;-64
2023/03/18 09:27:01;;;;;;;8.00;2.87;;;;;;;13.13;28.66;100024.38;4418842;32;34173;-65
2023/03/18 09:29:29;;;;;;;4.93;3.15;;;;;;;12.78;29.16;100028.06;4414071;32;33109;-66
2023/03/18 09:31:57;;;;;;;7.53;3.62;;;;;;;12.40;29.83;100030.22;4417518;32;34059;-64
2023/03/18 09:34:24;;;;;;;5.85;3.35;;;;;;;13.56;28.50;100023.59;4415505;32;33931;-64
2023/03/18 09:36:52;;;;;;;9.30;2.67;;;;;;;14.38;27.45;100015.75;4416983;32;34018;-64
2023/03/18 09:39:20;;;;;;;6.95;3.28;;;;;;;13.82;28.07;100023.25;4419347;32;33605;-64
2023/03/18 09:42:19;;;;;;;8.25;3.65;;;;;;;13.44;28.47;100025.44;4421885;32;34692;-64
2023/03/18 09:44:53;;;;;;;4.28;2.78;;;;;;;13.45;28.66;100019.09;4418019;32;33937;-64
2023/03/18 09:47:38;;;;;;;6.47;3.85;;;;;;;13.92;28.07;100016.94;4403829;32;34993;-66
2023/03/18 09:50:12;;;;;;;7.23;2.60;;;;;;;13.80;28.11;100023.34;4403144;32;33194;-64
2023/03/18 09:52:45;;;;;;;7.93;3.90;;;;;;;13.15;28.80;100014.34;4418548;32;35381;-64
2023/03/18 09:55:39;;;;;;;5.37;3.30;;;;;;;13.75;28.06;100026.44;4412165;32;33891;-64
2023/03/18 09:58:18;;;;;;;10.73;3.92;;;;;;;13.45;28.69;100012.84;4405308;32;35013;-65
2023/03/18 10:00:46;;;;;;;8.35;4.62;;;;;;;13.71;28.63;100016.09;4414098;32;33937;-65
2023/03/18 10:03:29;;;;;;;6.35;4.30;;;;;;;13.56;28.17;100009.28;4404135;32;34504;-68
2023/03/18 10:06:24;;;;;;;6.20;4.22;;;;;;;13.07;28.81;100027.56;4400729;32;34060;-64
2023/03/18 10:09:15;;;;;;;8.13;4.32;;;;;;;13.86;27.95;100008.53;4418415;32;35089;-65
2023/03/18 10:11:44;;;;;;;6.72;3.62;;;;;;;14.02;27.93;100005.41;4414858;32;33664;-64
2023/03/18 10:14:26;;;;;;;8.23;4.78;;;;;;;14.62;27.20;100003.84;4417767;32;33731;-64
2023/03/18 10:16:59;;;;;;;7.30;4.20;;;;;;;14.61;27.21;100007.53;4399203;32;34155;-66
2023/03/18 10:19:27;;;;;;;4.57;2.58;;;;;;;15.05;26.38;100008.97;4417172;32;34990;-65
2023/03/18 10:22:42;;;;;;;9.02;4.68;;;;;;;16.04;25.93;99985.53;4415415;32;33268;-65
2023/03/18 10:25:36;;;;;;;6.03;3.28;;;;;;;15.53;25.63;99981.25;4339584;33;34759;-64
2023/03/18 10:28:22;;;;;;;7.00;3.97;;;;;;;14.59;27.58;99994.19;4415904;32;33909;-64
2023/03/18 10:30:56;;;;;;;4.57;3.37;;;;;;;13.55;28.43;99992.31;4422286;32;35127;-64
2023/03/18 10:33:56;;;;;;;4.47;3.08;;;;;;;13.48;29.06;99989.28;4404056;32;33953;-66
2023/03/18 10:36:48;;;;;;;4.03;2.45;;;;;;;13.34;29.27;100000.28;4385522;32;34898;-66
2023/03/18 10:39:19;;;;;;;7.25;3.05;;;;;;;13.42;29.83;99989.78;4417550;32;32455;-66
2023/03/18 10:41:48;;;;;;;4.45;2.55;;;;;;;14.18;28.75;99990.50;4407270;32;34668;-64
2023/03/18 10:44:21;;;;;;;6.47;3.45;;;;;;;13.66;29.14;99994.94;4420614;32;33458;-64
2023/03/18 10:47:00;;;;;;;6.28;3.62;;;;;;;14.16;28.75;99995.19;4417575;32;33210;-64
2023/03/18 10:49:43;;;;;;;6.28;3.58;;;;;;;13.96;28.80;99990.62;4405729;32;34195;-64
2023/03/18 10:52:30;;;;;;;5.60;3.15;;;;;;;14.06;28.87;99986.19;4406147;32;33738;-65
2023/03/18 10:54:58;;;;;;;6.90;3.37;;;;;;;14.25;28.43;99984.59;4420517;32;34240;-64
2023/03/18 10:57:26;;;;;;;11.40;4.78;;;;;;;14.62;28.18;99974.22;4420975;32;35435;-65
2023/03/18 10:59:54;;;;;;;5.72;2.67;;;;;;;14.68;28.08;99982.59;4420405;32;34247;-66
2023/03/18 11:02:25;;;;;;;6.62;3.33;;;;;;;15.16;26.98;99966.75;4405922;32;32541;-69
2023/03/18 11:05:14;;;;;;;7.12;3.97;;;;;;;15.50;27.45;99961.78;4416333;32;33367;-65
2023/03/18 11:08:10;;;;;;;4.97;2.83;;;;;;;15.82;27.40;99954.28;4403180;32;33863;-65
2023/03/18 11:10:44;;;;;;;7.97;4.60;;;;;;;16.07;27.12;99944.75;4411760;32;33704;-65
2023/03/18 11:13:16;;;;;;;9.70;4.10;;;;;;;16.10;27.13;99954.41;4413494;32;34731;-69
2023/03/18 11:15:55;;;;;;;5.05;3.03;;;;;;;15.89;26.52;99951.03;4420972;32;34294;-65
2023/03/18 11:18:24;;;;;;;13.68;3.83;;;;;;;15.31;27.76;99952.72;4399780;32;33596;-64
2023/03/18 11:21:03;;;;;;;6.40;3.35;;;;;;;15.88;27.30;99950.19;4421366;32;34727;-68
2023/03/18 11:26:27;;;;;;;7.68;4.05;;;;;;;16.28;26.70;99933.78;4393920;32;33691;-68
2023/03/18 11:29:03;;;;;;;12.70;3.67;;;;;;;14.88;28.66;99931.47;4416547;32;33175;-65
2023/03/18 11:31:31;;;;;;;6.45;4.47;;;;;;;14.87;29.29;99929.78;4412610;32;35696;-64
2023/03/18 11:33:59;;;;;;;3.70;3.00;;;;;;;15.44;28.98;99925.47;4414443;32;33754;-65
2023/03/18 11:36:27;;;;;;;6.78;3.45;;;;;;;15.84;27.79;99917.22;4415588;32;34576;-64
2023/03/18 11:39:02;;;;;;;11.43;3.62;;;;;;;16.28;27.52;99919.41;4415252;32;34600;-67
2023/03/18 11:41:30;;;;;;;6.20;3.28;;;;;;;15.93;28.13;99920.91;4415458;32;34871;-65
2023/03/18 11:43:58;;;;;;;6.82;4.15;;;;;;;15.58;28.77;99916.09;4411375;32;33676;-65
2023/03/18 11:46:49;;;;;;;7.80;4.50;;;;;;;15.36;28.85;99920.75;4412585;32;34126;-64
2023/03/18 11:49:26;;;;;;;8.18;4.45;;;;;;;15.58;28.62;99911.53;4407160;32;34843;-65
2023/03/18 11:52:05;;;;;;;9.10;5.70;;;;;;;15.95;28.54;99916.22;4402406;32;33844;-65